sensor_id;sensor_type;location;lat;lon;timestamp;temperature;humidity
4993;DHT22;2514;53.524;10.166;2022-08-21T00:01:22;13.40;99.90
4993;DHT22;2514;53.524;10.166;2022-08-21T00:03:52;13.30;99.90
4993;DHT22;2514;53.524;10.166;2022-08-21T00:06:19;13.10;99.90
4993;DHT22;2514;53.524;10.166;2022-08-21T00:08:46;13.10;99.90
4993;DHT22;2514;53.524;10.166;2022-08-21T00:11:15;13.10;99.90
4993;DHT22;2514;53.524;10.166;2022-08-21T00:13:42;13.10;99.90
4993;DHT22;2514;53.524;10.166;2022-08-21T00:16:09;13.20;99.90
4993;DHT22;2514;53.524;10.166;2022-08-21T00:18:36;13.20;99.90
4993;DHT22;2514;53.524;10.166;2022-08-21T00:21:05;13.30;99.90
4993;DHT22;2514;53.524;10.166;2022-08-21T00:23:33;13.30;99.90
4993;DHT22;2514;53.524;10.166;2022-08-21T00:26:00;13.40;99.90
4993;DHT22;2514;53.524;10.166;2022-08-21T00:28:27;13.30;99.90
4993;DHT22;2514;53.524;10.166;2022-08-21T00:30:54;13.30;99.90
4993;DHT22;2514;53.524;10.166;2022-08-21T00:33:22;13.30;99.90
4993;DHT22;2514;53.524;10.166;2022-08-21T00:35:49;13.30;99.90
4993;DHT22;2514;53.524;10.166;2022-08-21T00:38:17;13.20;99.90
4993;DHT22;2514;53.524;10.166;2022-08-21T00:40:47;13.30;99.90
4993;DHT22;2514;53.524;10.166;2022-08-21T00:43:16;13.40;99.90
4993;DHT22;2514;53.524;10.166;2022-08-21T00:45:43;13.40;99.90
4993;DHT22;2514;53.524;10.166;2022-08-21T00:48:11;13.40;99.90
4993;DHT22;2514;53.524;10.166;2022-08-21T00:50:42;13.40;99.90
4993;DHT22;2514;53.524;10.166;2022-08-21T00:53:10;13.40;99.90
4993;DHT22;2514;53.524;10.166;2022-08-21T00:55:40;13.50;99.90
4993;DHT22;2514;53.524;10.166;2022-08-21T00:58:09;13.60;99.90
4993;DHT22;2514;53.524;10.166;2022-08-21T01:00:39;13.50;99.90
4993;DHT22;2514;53.524;10.166;2022-08-21T01:03:08;13.40;99.90
4993;DHT22;2514;53.524;10.166;2022-08-21T01:05:36;13.40;99.90
4993;DHT22;2514;53.524;10.166;2022-08-21T01:08:03;13.40;99.90
4993;DHT22;2514;53.524;10.166;2022-08-21T01:10:30;13.40;99.90
4993;DHT22;2514;53.524;10.166;2022-08-21T01:12:59;13.40;99.90
4993;DHT22;2514;53.524;10.166;2022-08-21T01:15:30;13.40;99.90
4993;DHT22;2514;53.524;10.166;2022-08-21T01:17:57;13.40;99.90
4993;DHT22;2514;53.524;10.166;2022-08-21T01:20:25;13.40;99.90
4993;DHT22;2514;53.524;10.166;2022-08-21T01:22:53;13.40;99.90
4993;DHT22;2514;53.524;10.166;2022-08-21T01:25:20;13.40;99.90
4993;DHT22;2514;53.524;10.166;2022-08-21T01:27:47;13.40;99.90
4993;DHT22;2514;53.524;10.166;2022-08-21T01:30:17;13.40;99.90
4993;DHT22;2514;53.524;10.166;2022-08-21T01:32:44;13.50;99.90
4993;DHT22;2514;53.524;10.166;2022-08-21T01:35:12;13.50;99.90
4993;DHT22;2514;53.524;10.166;2022-08-21T01:37:39;13.40;99.90
4993;DHT22;2514;53.524;10.166;2022-08-21T01:40:09;13.40;99.90
4993;DHT22;2514;53.524;10.166;2022-08-21T01:42:36;13.40;99.90
4993;DHT22;2514;53.524;10.166;2022-08-21T01:45:05;13.40;99.90
4993;DHT22;2514;53.524;10.166;2022-08-21T01:47:32;13.20;99.90
4993;DHT22;2514;53.524;10.166;2022-08-21T01:49:59;13.10;99.90
4993;DHT22;2514;53.524;10.166;2022-08-21T01:52:28;12.90;99.90
4993;DHT22;2514;53.524;10.166;2022-08-21T01:54:55;12.90;99.90
4993;DHT22;2514;53.524;10.166;2022-08-21T01:57:23;13.00;99.90
4993;DHT22;2514;53.524;10.166;2022-08-21T01:59:50;13.00;99.90
4993;DHT22;2514;53.524;10.166;2022-08-21T02:02:17;13.20;99.90
4993;DHT22;2514;53.524;10.166;2022-08-21T02:04:44;13.20;99.90
4993;DHT22;2514;53.524;10.166;2022-08-21T02:07:11;13.30;99.90
4993;DHT22;2514;53.524;10.166;2022-08-21T02:09:38;13.40;99.90
4993;DHT22;2514;53.524;10.166;2022-08-21T02:12:07;13.30;99.90
4993;DHT22;2514;53.524;10.166;2022-08-21T02:14:36;13.30;99.90
4993;DHT22;2514;53.524;10.166;2022-08-21T02:17:03;13.20;99.90
4993;DHT22;2514;53.524;10.166;2022-08-21T02:19:30;13.30;99.90
4993;DHT22;2514;53.524;10.166;2022-08-21T02:21:57;13.20;99.90
4993;DHT22;2514;53.524;10.166;2022-08-21T02:24:24;13.20;99.90
4993;DHT22;2514;53.524;10.166;2022-08-21T02:26:51;13.10;99.90
4993;DHT22;2514;53.524;10.166;2022-08-21T02:29:17;13.10;99.90
4993;DHT22;2514;53.524;10.166;2022-08-21T02:31:46;13.10;99.90
4993;DHT22;2514;53.524;10.166;2022-08-21T02:34:13;13.20;99.90
4993;DHT22;2514;53.524;10.166;2022-08-21T02:36:40;13.20;99.90
4993;DHT22;2514;53.524;10.166;2022-08-21T02:39:06;13.10;99.90
4993;DHT22;2514;53.524;10.166;2022-08-21T02:41:33;13.10;99.90
4993;DHT22;2514;53.524;10.166;2022-08-21T02:44:00;13.10;99.90
4993;DHT22;2514;53.524;10.166;2022-08-21T02:46:27;13.00;99.90
4993;DHT22;2514;53.524;10.166;2022-08-21T02:48:55;12.90;99.90
4993;DHT22;2514;53.524;10.166;2022-08-21T02:51:22;12.60;99.90
4993;DHT22;2514;53.524;10.166;2022-08-21T02:53:50;12.50;99.90
4993;DHT22;2514;53.524;10.166;2022-08-21T02:56:19;12.30;99.90
4993;DHT22;2514;53.524;10.166;2022-08-21T02:58:49;12.30;99.90
4993;DHT22;2514;53.524;10.166;2022-08-21T03:01:17;12.30;99.90
4993;DHT22;2514;53.524;10.166;2022-08-21T03:03:46;12.30;99.90
4993;DHT22;2514;53.524;10.166;2022-08-21T03:06:18;12.40;99.90
4993;DHT22;2514;53.524;10.166;2022-08-21T03:09:10;12.30;99.90
4993;DHT22;2514;53.524;10.166;2022-08-21T03:11:37;12.30;99.90
4993;DHT22;2514;53.524;10.166;2022-08-21T03:14:04;12.30;99.90
4993;DHT22;2514;53.524;10.166;2022-08-21T03:16:31;12.30;99.90
4993;DHT22;2514;53.524;10.166;2022-08-21T03:18:58;12.20;99.90
4993;DHT22;2514;53.524;10.166;2022-08-21T03:21:26;12.30;99.90
4993;DHT22;2514;53.524;10.166;2022-08-21T03:23:54;12.20;99.90
4993;DHT22;2514;53.524;10.166;2022-08-21T03:26:21;12.30;99.90
4993;DHT22;2514;53.524;10.166;2022-08-21T03:28:49;12.20;99.90
4993;DHT22;2514;53.524;10.166;2022-08-21T03:31:17;12.20;99.90
4993;DHT22;2514;53.524;10.166;2022-08-21T03:33:44;12.30;99.90
4993;DHT22;2514;53.524;10.166;2022-08-21T03:36:11;12.20;99.90
4993;DHT22;2514;53.524;10.166;2022-08-21T03:38:39;12.20;99.90
4993;DHT22;2514;53.524;10.166;2022-08-21T03:41:07;12.20;99.90
4993;DHT22;2514;53.524;10.166;2022-08-21T03:43:35;12.20;99.90
4993;DHT22;2514;53.524;10.166;2022-08-21T03:46:03;12.30;99.90
4993;DHT22;2514;53.524;10.166;2022-08-21T03:48:31;12.40;99.90
4993;DHT22;2514;53.524;10.166;2022-08-21T03:50:58;12.40;99.90
4993;DHT22;2514;53.524;10.166;2022-08-21T03:53:25;12.30;99.90
4993;DHT22;2514;53.524;10.166;2022-08-21T03:55:53;12.30;99.90
4993;DHT22;2514;53.524;10.166;2022-08-21T03:58:24;12.30;99.90
4993;DHT22;2514;53.524;10.166;2022-08-21T04:00:54;12.30;99.90
4993;DHT22;2514;53.524;10.166;2022-08-21T04:03:21;12.30;99.90
4993;DHT22;2514;53.524;10.166;2022-08-21T04:05:48;12.30;99.90
4993;DHT22;2514;53.524;10.166;2022-08-21T04:08:16;12.30;99.90
4993;DHT22;2514;53.524;10.166;2022-08-21T04:10:46;12.20;99.90
4993;DHT22;2514;53.524;10.166;2022-08-21T04:13:15;12.20;99.90
4993;DHT22;2514;53.524;10.166;2022-08-21T04:15:42;12.10;99.90
4993;DHT22;2514;53.524;10.166;2022-08-21T04:18:10;12.10;99.90
4993;DHT22;2514;53.524;10.166;2022-08-21T04:20:37;12.00;99.90
4993;DHT22;2514;53.524;10.166;2022-08-21T04:23:05;12.00;99.90
4993;DHT22;2514;53.524;10.166;2022-08-21T04:25:32;12.10;99.90
4993;DHT22;2514;53.524;10.166;2022-08-21T04:27:59;12.20;99.90
4993;DHT22;2514;53.524;10.166;2022-08-21T04:30:28;12.20;99.90
4993;DHT22;2514;53.524;10.166;2022-08-21T04:32:57;12.20;99.90
4993;DHT22;2514;53.524;10.166;2022-08-21T04:35:26;12.30;99.90
4993;DHT22;2514;53.524;10.166;2022-08-21T04:37:53;12.30;99.90
4993;DHT22;2514;53.524;10.166;2022-08-21T04:40:21;12.20;99.90
4993;DHT22;2514;53.524;10.166;2022-08-21T04:42:51;12.10;99.90
4993;DHT22;2514;53.524;10.166;2022-08-21T04:45:20;12.10;99.90
4993;DHT22;2514;53.524;10.166;2022-08-21T04:47:53;12.10;99.90
4993;DHT22;2514;53.524;10.166;2022-08-21T04:50:23;12.20;99.90
4993;DHT22;2514;53.524;10.166;2022-08-21T04:52:51;12.30;99.90
4993;DHT22;2514;53.524;10.166;2022-08-21T04:55:19;12.40;99.90
4993;DHT22;2514;53.524;10.166;2022-08-21T04:57:46;12.40;99.90
4993;DHT22;2514;53.524;10.166;2022-08-21T05:00:14;12.40;99.90
4993;DHT22;2514;53.524;10.166;2022-08-21T05:02:44;12.40;99.90
4993;DHT22;2514;53.524;10.166;2022-08-21T05:05:14;12.50;99.90
4993;DHT22;2514;53.524;10.166;2022-08-21T05:07:41;12.50;99.90
4993;DHT22;2514;53.524;10.166;2022-08-21T05:10:10;12.50;99.90
4993;DHT22;2514;53.524;10.166;2022-08-21T05:12:37;12.50;99.90
4993;DHT22;2514;53.524;10.166;2022-08-21T05:15:05;12.70;99.90
4993;DHT22;2514;53.524;10.166;2022-08-21T05:17:32;12.80;99.90
4993;DHT22;2514;53.524;10.166;2022-08-21T05:19:59;13.00;99.90
4993;DHT22;2514;53.524;10.166;2022-08-21T05:22:28;13.10;99.90
4993;DHT22;2514;53.524;10.166;2022-08-21T05:24:57;13.20;99.90
4993;DHT22;2514;53.524;10.166;2022-08-21T05:27:24;13.30;99.90
4993;DHT22;2514;53.524;10.166;2022-08-21T05:29:50;13.50;99.90
4993;DHT22;2514;53.524;10.166;2022-08-21T05:32:17;13.60;99.90
4993;DHT22;2514;53.524;10.166;2022-08-21T05:34:44;13.80;99.90
4993;DHT22;2514;53.524;10.166;2022-08-21T05:37:12;13.90;99.90
4993;DHT22;2514;53.524;10.166;2022-08-21T05:39:41;14.00;99.90
4993;DHT22;2514;53.524;10.166;2022-08-21T05:42:08;14.20;99.90
4993;DHT22;2514;53.524;10.166;2022-08-21T05:44:35;14.30;99.90
4993;DHT22;2514;53.524;10.166;2022-08-21T05:47:04;14.40;99.90
4993;DHT22;2514;53.524;10.166;2022-08-21T05:49:31;14.50;99.90
4993;DHT22;2514;53.524;10.166;2022-08-21T05:51:58;14.60;99.90
4993;DHT22;2514;53.524;10.166;2022-08-21T05:54:26;14.60;99.90
4993;DHT22;2514;53.524;10.166;2022-08-21T05:56:54;14.80;99.90
4993;DHT22;2514;53.524;10.166;2022-08-21T05:59:21;14.90;99.90
4993;DHT22;2514;53.524;10.166;2022-08-21T06:01:48;14.90;99.90
4993;DHT22;2514;53.524;10.166;2022-08-21T06:04:17;14.90;99.90
4993;DHT22;2514;53.524;10.166;2022-08-21T06:06:44;15.20;99.90
4993;DHT22;2514;53.524;10.166;2022-08-21T06:09:12;15.30;99.90
4993;DHT22;2514;53.524;10.166;2022-08-21T06:11:39;15.40;99.90
4993;DHT22;2514;53.524;10.166;2022-08-21T06:14:08;15.40;99.90
4993;DHT22;2514;53.524;10.166;2022-08-21T06:16:34;15.50;99.90
4993;DHT22;2514;53.524;10.166;2022-08-21T06:19:01;15.50;99.90
4993;DHT22;2514;53.524;10.166;2022-08-21T06:21:28;15.60;99.90
4993;DHT22;2514;53.524;10.166;2022-08-21T06:23:55;15.70;99.90
4993;DHT22;2514;53.524;10.166;2022-08-21T06:26:22;15.80;99.90
4993;DHT22;2514;53.524;10.166;2022-08-21T06:28:49;15.80;99.90
4993;DHT22;2514;53.524;10.166;2022-08-21T06:31:19;15.80;99.90
4993;DHT22;2514;53.524;10.166;2022-08-21T06:33:46;15.90;99.90
4993;DHT22;2514;53.524;10.166;2022-08-21T06:36:14;15.90;99.90
4993;DHT22;2514;53.524;10.166;2022-08-21T06:38:41;15.90;99.90
4993;DHT22;2514;53.524;10.166;2022-08-21T06:41:08;15.90;99.90
4993;DHT22;2514;53.524;10.166;2022-08-21T06:43:35;15.90;99.90
4993;DHT22;2514;53.524;10.166;2022-08-21T06:46:02;15.90;99.90
4993;DHT22;2514;53.524;10.166;2022-08-21T06:48:31;16.00;99.90
4993;DHT22;2514;53.524;10.166;2022-08-21T06:51:00;16.00;99.90
4993;DHT22;2514;53.524;10.166;2022-08-21T06:53:27;16.10;99.90
4993;DHT22;2514;53.524;10.166;2022-08-21T06:55:54;16.00;99.90
4993;DHT22;2514;53.524;10.166;2022-08-21T06:58:21;16.10;99.90
4993;DHT22;2514;53.524;10.166;2022-08-21T07:00:49;16.20;99.90
4993;DHT22;2514;53.524;10.166;2022-08-21T07:03:19;16.30;99.90
4993;DHT22;2514;53.524;10.166;2022-08-21T07:05:48;16.40;99.90
4993;DHT22;2514;53.524;10.166;2022-08-21T07:08:15;16.40;99.90
4993;DHT22;2514;53.524;10.166;2022-08-21T07:10:43;16.60;99.90
4993;DHT22;2514;53.524;10.166;2022-08-21T07:13:10;16.80;99.90
4993;DHT22;2514;53.524;10.166;2022-08-21T07:15:37;17.00;99.90
4993;DHT22;2514;53.524;10.166;2022-08-21T07:18:04;17.30;99.90
4993;DHT22;2514;53.524;10.166;2022-08-21T07:20:32;17.50;99.90
4993;DHT22;2514;53.524;10.166;2022-08-21T07:23:03;17.50;99.90
4993;DHT22;2514;53.524;10.166;2022-08-21T07:25:31;17.60;99.90
4993;DHT22;2514;53.524;10.166;2022-08-21T07:27:58;17.80;99.90
4993;DHT22;2514;53.524;10.166;2022-08-21T07:30:30;18.00;62.60
4993;DHT22;2514;53.524;10.166;2022-08-21T07:32:57;18.10;1.00
4993;DHT22;2514;53.524;10.166;2022-08-21T07:35:24;18.10;1.00
4993;DHT22;2514;53.524;10.166;2022-08-21T07:37:53;17.90;1.00
4993;DHT22;2514;53.524;10.166;2022-08-21T07:40:21;17.80;1.00
4993;DHT22;2514;53.524;10.166;2022-08-21T07:42:49;17.90;99.90
4993;DHT22;2514;53.524;10.166;2022-08-21T07:45:18;17.90;99.90
4993;DHT22;2514;53.524;10.166;2022-08-21T07:47:45;17.90;99.90
4993;DHT22;2514;53.524;10.166;2022-08-21T07:50:13;18.00;99.90
4993;DHT22;2514;53.524;10.166;2022-08-21T07:52:41;18.00;99.90
4993;DHT22;2514;53.524;10.166;2022-08-21T07:55:10;18.20;99.90
4993;DHT22;2514;53.524;10.166;2022-08-21T07:57:39;18.40;99.90
4993;DHT22;2514;53.524;10.166;2022-08-21T08:00:09;18.60;99.90
4993;DHT22;2514;53.524;10.166;2022-08-21T08:02:36;18.50;64.00
4993;DHT22;2514;53.524;10.166;2022-08-21T08:05:06;18.50;91.60
4993;DHT22;2514;53.524;10.166;2022-08-21T08:07:33;18.60;45.70
4993;DHT22;2514;53.524;10.166;2022-08-21T08:10:00;18.80;1.00
4993;DHT22;2514;53.524;10.166;2022-08-21T08:12:27;18.80;1.00
4993;DHT22;2514;53.524;10.166;2022-08-21T08:14:57;18.90;1.00
4993;DHT22;2514;53.524;10.166;2022-08-21T08:17:24;19.10;1.00
4993;DHT22;2514;53.524;10.166;2022-08-21T08:19:51;19.10;1.00
4993;DHT22;2514;53.524;10.166;2022-08-21T08:22:20;19.40;1.00
4993;DHT22;2514;53.524;10.166;2022-08-21T08:24:49;19.80;1.00
4993;DHT22;2514;53.524;10.166;2022-08-21T08:27:16;20.90;1.00
4993;DHT22;2514;53.524;10.166;2022-08-21T08:29:43;22.30;1.00
4993;DHT22;2514;53.524;10.166;2022-08-21T08:32:12;23.80;1.00
4993;DHT22;2514;53.524;10.166;2022-08-21T08:34:39;24.00;1.00
4993;DHT22;2514;53.524;10.166;2022-08-21T08:37:08;24.90;1.00
4993;DHT22;2514;53.524;10.166;2022-08-21T08:39:36;25.90;1.00
4993;DHT22;2514;53.524;10.166;2022-08-21T08:42:07;24.90;1.00
4993;DHT22;2514;53.524;10.166;2022-08-21T08:44:35;24.00;1.00
4993;DHT22;2514;53.524;10.166;2022-08-21T08:47:03;24.20;1.00
4993;DHT22;2514;53.524;10.166;2022-08-21T08:49:39;23.80;1.00
4993;DHT22;2514;53.524;10.166;2022-08-21T08:52:18;23.10;1.00
4993;DHT22;2514;53.524;10.166;2022-08-21T08:54:51;22.60;1.00
4993;DHT22;2514;53.524;10.166;2022-08-21T08:57:22;21.90;1.00
4993;DHT22;2514;53.524;10.166;2022-08-21T08:59:51;21.50;1.00
4993;DHT22;2514;53.524;10.166;2022-08-21T09:02:19;22.10;1.00
4993;DHT22;2514;53.524;10.166;2022-08-21T09:04:48;23.00;1.00
4993;DHT22;2514;53.524;10.166;2022-08-21T09:07:21;23.30;1.00
4993;DHT22;2514;53.524;10.166;2022-08-21T09:10:05;23.90;1.00
4993;DHT22;2514;53.524;10.166;2022-08-21T09:12:44;24.60;1.00
4993;DHT22;2514;53.524;10.166;2022-08-21T09:15:18;23.80;1.00
4993;DHT22;2514;53.524;10.166;2022-08-21T09:18:02;24.10;1.00
4993;DHT22;2514;53.524;10.166;2022-08-21T09:20:40;24.70;1.00
4993;DHT22;2514;53.524;10.166;2022-08-21T09:23:19;25.10;1.00
4993;DHT22;2514;53.524;10.166;2022-08-21T09:25:58;25.50;1.00
4993;DHT22;2514;53.524;10.166;2022-08-21T09:28:26;26.00;1.00
4993;DHT22;2514;53.524;10.166;2022-08-21T09:30:55;26.00;1.00
4993;DHT22;2514;53.524;10.166;2022-08-21T09:33:28;25.80;1.00
4993;DHT22;2514;53.524;10.166;2022-08-21T09:35:56;25.60;1.00
4993;DHT22;2514;53.524;10.166;2022-08-21T09:38:30;26.00;1.00
4993;DHT22;2514;53.524;10.166;2022-08-21T09:41:02;26.70;1.00
4993;DHT22;2514;53.524;10.166;2022-08-21T09:43:31;27.90;50.40
4993;DHT22;2514;53.524;10.166;2022-08-21T09:46:05;28.60;99.90
4993;DHT22;2514;53.524;10.166;2022-08-21T09:48:40;28.30;94.40
4993;DHT22;2514;53.524;10.166;2022-08-21T09:51:10;28.50;99.90
4993;DHT22;2514;53.524;10.166;2022-08-21T09:53:42;28.10;86.70
4993;DHT22;2514;53.524;10.166;2022-08-21T09:56:27;27.90;59.60
4993;DHT22;2514;53.524;10.166;2022-08-21T09:59:24;28.40;87.10
4993;DHT22;2514;53.524;10.166;2022-08-21T10:01:53;29.50;99.90
4993;DHT22;2514;53.524;10.166;2022-08-21T10:04:22;29.40;99.90
4993;DHT22;2514;53.524;10.166;2022-08-21T10:06:50;29.80;99.90
4993;DHT22;2514;53.524;10.166;2022-08-21T10:09:19;29.80;99.90
4993;DHT22;2514;53.524;10.166;2022-08-21T10:11:52;29.80;99.90
4993;DHT22;2514;53.524;10.166;2022-08-21T10:14:38;30.30;99.90
4993;DHT22;2514;53.524;10.166;2022-08-21T10:17:14;30.60;99.90
4993;DHT22;2514;53.524;10.166;2022-08-21T10:19:48;29.30;93.00
4993;DHT22;2514;53.524;10.166;2022-08-21T10:22:27;27.90;1.00
4993;DHT22;2514;53.524;10.166;2022-08-21T10:25:02;27.50;1.00
4993;DHT22;2514;53.524;10.166;2022-08-21T10:27:37;26.30;1.00
4993;DHT22;2514;53.524;10.166;2022-08-21T10:30:09;25.70;1.00
4993;DHT22;2514;53.524;10.166;2022-08-21T10:32:47;24.90;1.00
4993;DHT22;2514;53.524;10.166;2022-08-21T10:35:23;25.60;1.00
4993;DHT22;2514;53.524;10.166;2022-08-21T10:38:08;26.50;1.00
4993;DHT22;2514;53.524;10.166;2022-08-21T10:40:47;26.80;1.00
4993;DHT22;2514;53.524;10.166;2022-08-21T10:43:26;25.90;1.00
4993;DHT22;2514;53.524;10.166;2022-08-21T10:46:01;25.00;1.00
4993;DHT22;2514;53.524;10.166;2022-08-21T10:48:36;24.10;1.00
4993;DHT22;2514;53.524;10.166;2022-08-21T10:51:06;23.90;1.00
4993;DHT22;2514;53.524;10.166;2022-08-21T10:53:45;25.20;1.00
4993;DHT22;2514;53.524;10.166;2022-08-21T10:56:18;26.70;1.00
4993;DHT22;2514;53.524;10.166;2022-08-21T10:58:54;27.30;1.00
4993;DHT22;2514;53.524;10.166;2022-08-21T11:01:29;26.80;1.00
4993;DHT22;2514;53.524;10.166;2022-08-21T11:04:09;27.00;1.00
4993;DHT22;2514;53.524;10.166;2022-08-21T11:06:39;27.60;1.00
4993;DHT22;2514;53.524;10.166;2022-08-21T12:44:43;30.00;1.00
4993;DHT22;2514;53.524;10.166;2022-08-21T12:47:17;29.60;1.00
4993;DHT22;2514;53.524;10.166;2022-08-21T12:49:53;28.50;1.00
4993;DHT22;2514;53.524;10.166;2022-08-21T12:52:27;27.30;1.00
4993;DHT22;2514;53.524;10.166;2022-08-21T12:54:55;26.70;99.90
4993;DHT22;2514;53.524;10.166;2022-08-21T12:57:26;26.50;99.90
4993;DHT22;2514;53.524;10.166;2022-08-21T12:59:57;27.30;1.00
4993;DHT22;2514;53.524;10.166;2022-08-21T13:02:28;29.00;1.00
4993;DHT22;2514;53.524;10.166;2022-08-21T13:04:56;29.80;1.00
4993;DHT22;2514;53.524;10.166;2022-08-21T13:07:28;29.70;1.00
4993;DHT22;2514;53.524;10.166;2022-08-21T13:09:59;29.00;1.00
4993;DHT22;2514;53.524;10.166;2022-08-21T13:12:28;28.60;1.00
4993;DHT22;2514;53.524;10.166;2022-08-21T13:14:59;28.50;1.00
4993;DHT22;2514;53.524;10.166;2022-08-21T13:17:27;28.10;1.00
4993;DHT22;2514;53.524;10.166;2022-08-21T13:19:59;28.00;1.00
4993;DHT22;2514;53.524;10.166;2022-08-21T13:22:27;28.30;1.00
4993;DHT22;2514;53.524;10.166;2022-08-21T13:24:54;27.40;99.90
4993;DHT22;2514;53.524;10.166;2022-08-21T13:27:26;27.70;1.00
4993;DHT22;2514;53.524;10.166;2022-08-21T13:30:08;28.40;1.00
4993;DHT22;2514;53.524;10.166;2022-08-21T13:32:39;27.90;1.00
4993;DHT22;2514;53.524;10.166;2022-08-21T13:35:13;26.80;99.90
4993;DHT22;2514;53.524;10.166;2022-08-21T13:37:41;26.50;99.90
4993;DHT22;2514;53.524;10.166;2022-08-21T13:40:14;26.60;99.90
4993;DHT22;2514;53.524;10.166;2022-08-21T13:42:43;26.90;99.90
4993;DHT22;2514;53.524;10.166;2022-08-21T13:45:16;27.20;99.90
4993;DHT22;2514;53.524;10.166;2022-08-21T13:47:45;28.00;1.00
4993;DHT22;2514;53.524;10.166;2022-08-21T13:50:15;28.40;1.00
4993;DHT22;2514;53.524;10.166;2022-08-21T13:52:53;28.50;1.00
4993;DHT22;2514;53.524;10.166;2022-08-21T13:55:20;28.40;1.00
4993;DHT22;2514;53.524;10.166;2022-08-21T13:57:47;28.30;1.00
4993;DHT22;2514;53.524;10.166;2022-08-21T14:00:28;27.90;99.90
4993;DHT22;2514;53.524;10.166;2022-08-21T14:03:02;28.10;99.90
4993;DHT22;2514;53.524;10.166;2022-08-21T14:05:32;28.00;99.90
4993;DHT22;2514;53.524;10.166;2022-08-21T14:08:07;28.20;99.90
4993;DHT22;2514;53.524;10.166;2022-08-21T14:10:40;28.00;99.90
4993;DHT22;2514;53.524;10.166;2022-08-21T14:13:28;27.80;99.90
4993;DHT22;2514;53.524;10.166;2022-08-21T14:15:59;27.00;99.90
4993;DHT22;2514;53.524;10.166;2022-08-21T14:18:26;26.40;99.90
4993;DHT22;2514;53.524;10.166;2022-08-21T14:21:04;26.70;99.90
4993;DHT22;2514;53.524;10.166;2022-08-21T14:23:31;27.20;99.90
4993;DHT22;2514;53.524;10.166;2022-08-21T14:26:00;27.60;99.90
4993;DHT22;2514;53.524;10.166;2022-08-21T14:28:30;28.20;99.90
4993;DHT22;2514;53.524;10.166;2022-08-21T14:31:11;28.70;99.90
4993;DHT22;2514;53.524;10.166;2022-08-21T14:33:38;28.70;99.90
4993;DHT22;2514;53.524;10.166;2022-08-21T14:36:06;28.80;99.90
4993;DHT22;2514;53.524;10.166;2022-08-21T14:38:35;29.00;99.90
4993;DHT22;2514;53.524;10.166;2022-08-21T14:41:08;28.40;99.90
4993;DHT22;2514;53.524;10.166;2022-08-21T14:43:37;28.30;99.90
4993;DHT22;2514;53.524;10.166;2022-08-21T14:46:06;28.30;99.90
4993;DHT22;2514;53.524;10.166;2022-08-21T14:48:32;28.60;99.90
4993;DHT22;2514;53.524;10.166;2022-08-21T14:50:59;28.60;99.90
4993;DHT22;2514;53.524;10.166;2022-08-21T14:53:27;28.60;99.90
4993;DHT22;2514;53.524;10.166;2022-08-21T14:55:53;28.10;99.90
4993;DHT22;2514;53.524;10.166;2022-08-21T14:58:35;27.50;99.90
4993;DHT22;2514;53.524;10.166;2022-08-21T15:01:02;27.40;99.90
4993;DHT22;2514;53.524;10.166;2022-08-21T15:03:32;27.50;99.90
4993;DHT22;2514;53.524;10.166;2022-08-21T15:06:00;27.60;99.90
4993;DHT22;2514;53.524;10.166;2022-08-21T15:08:27;27.90;99.90
4993;DHT22;2514;53.524;10.166;2022-08-21T15:10:54;28.30;99.90
4993;DHT22;2514;53.524;10.166;2022-08-21T15:13:21;28.40;99.90
4993;DHT22;2514;53.524;10.166;2022-08-21T15:15:51;28.50;99.90
4993;DHT22;2514;53.524;10.166;2022-08-21T15:18:18;28.80;99.90
4993;DHT22;2514;53.524;10.166;2022-08-21T15:20:46;28.60;99.90
4993;DHT22;2514;53.524;10.166;2022-08-21T15:23:14;28.30;99.90
4993;DHT22;2514;53.524;10.166;2022-08-21T15:25:41;27.80;99.90
4993;DHT22;2514;53.524;10.166;2022-08-21T15:28:09;28.10;99.90
4993;DHT22;2514;53.524;10.166;2022-08-21T15:30:37;28.40;99.90
4993;DHT22;2514;53.524;10.166;2022-08-21T15:33:04;28.40;99.90
4993;DHT22;2514;53.524;10.166;2022-08-21T15:35:33;28.90;99.90
4993;DHT22;2514;53.524;10.166;2022-08-21T15:38:02;29.00;99.90
4993;DHT22;2514;53.524;10.166;2022-08-21T15:40:30;28.40;99.90
4993;DHT22;2514;53.524;10.166;2022-08-21T15:42:59;28.40;99.90
4993;DHT22;2514;53.524;10.166;2022-08-21T15:45:27;28.30;99.90
4993;DHT22;2514;53.524;10.166;2022-08-21T15:47:54;28.20;99.90
4993;DHT22;2514;53.524;10.166;2022-08-21T15:50:22;28.70;99.90
4993;DHT22;2514;53.524;10.166;2022-08-21T15:52:49;29.00;99.90
4993;DHT22;2514;53.524;10.166;2022-08-21T15:55:18;28.30;99.90
4993;DHT22;2514;53.524;10.166;2022-08-21T15:57:46;27.70;99.90
4993;DHT22;2514;53.524;10.166;2022-08-21T16:00:17;27.70;99.90
4993;DHT22;2514;53.524;10.166;2022-08-21T16:02:47;28.20;99.90
4993;DHT22;2514;53.524;10.166;2022-08-21T16:05:16;28.60;99.90
4993;DHT22;2514;53.524;10.166;2022-08-21T16:07:45;28.80;99.90
4993;DHT22;2514;53.524;10.166;2022-08-21T16:10:12;28.50;99.90
4993;DHT22;2514;53.524;10.166;2022-08-21T16:12:44;28.80;99.90
4993;DHT22;2514;53.524;10.166;2022-08-21T16:15:15;29.00;99.90
4993;DHT22;2514;53.524;10.166;2022-08-21T16:17:44;29.20;99.90
4993;DHT22;2514;53.524;10.166;2022-08-21T16:20:15;29.30;99.90
4993;DHT22;2514;53.524;10.166;2022-08-21T16:22:42;29.00;99.90
4993;DHT22;2514;53.524;10.166;2022-08-21T16:25:09;28.00;99.90
4993;DHT22;2514;53.524;10.166;2022-08-21T16:27:36;27.80;99.90
4993;DHT22;2514;53.524;10.166;2022-08-21T16:30:06;27.60;99.90
4993;DHT22;2514;53.524;10.166;2022-08-21T16:32:33;27.80;99.90
4993;DHT22;2514;53.524;10.166;2022-08-21T16:35:01;28.00;99.90
4993;DHT22;2514;53.524;10.166;2022-08-21T16:37:28;28.10;99.90
4993;DHT22;2514;53.524;10.166;2022-08-21T16:39:55;28.00;99.90
4993;DHT22;2514;53.524;10.166;2022-08-21T16:42:24;27.60;99.90
4993;DHT22;2514;53.524;10.166;2022-08-21T16:44:52;27.50;99.90
4993;DHT22;2514;53.524;10.166;2022-08-21T16:47:20;27.40;99.90
4993;DHT22;2514;53.524;10.166;2022-08-21T16:49:48;27.10;99.90
4993;DHT22;2514;53.524;10.166;2022-08-21T16:52:15;27.10;99.90
4993;DHT22;2514;53.524;10.166;2022-08-21T16:54:43;26.80;77.40
4993;DHT22;2514;53.524;10.166;2022-08-21T16:57:10;27.00;95.30
4993;DHT22;2514;53.524;10.166;2022-08-21T16:59:38;26.90;86.80
4993;DHT22;2514;53.524;10.166;2022-08-21T17:02:08;27.00;95.40
4993;DHT22;2514;53.524;10.166;2022-08-21T17:04:40;26.60;32.80
4993;DHT22;2514;53.524;10.166;2022-08-21T17:07:07;26.80;69.40
4993;DHT22;2514;53.524;10.166;2022-08-21T17:09:34;26.90;88.10
4993;DHT22;2514;53.524;10.166;2022-08-21T17:12:01;27.20;99.90
4993;DHT22;2514;53.524;10.166;2022-08-21T17:14:28;26.70;53.20
4993;DHT22;2514;53.524;10.166;2022-08-21T17:16:55;26.70;49.80
4993;DHT22;2514;53.524;10.166;2022-08-21T17:19:22;26.50;25.70
4993;DHT22;2514;53.524;10.166;2022-08-21T17:21:51;26.00;1.00
4993;DHT22;2514;53.524;10.166;2022-08-21T17:24:17;25.70;1.00
4993;DHT22;2514;53.524;10.166;2022-08-21T17:26:45;25.70;1.00
4993;DHT22;2514;53.524;10.166;2022-08-21T17:29:13;25.60;1.00
4993;DHT22;2514;53.524;10.166;2022-08-21T17:31:41;25.80;1.00
4993;DHT22;2514;53.524;10.166;2022-08-21T17:34:09;26.00;1.00
4993;DHT22;2514;53.524;10.166;2022-08-21T17:36:37;26.10;1.00
4993;DHT22;2514;53.524;10.166;2022-08-21T17:39:05;26.30;1.00